createdAt,value
2018-11-28T00:00:39.909Z,8.00
2018-11-28T00:03:08.545Z,7.99
2018-11-28T00:05:36.711Z,8.01
2018-11-28T00:08:04.868Z,7.99
2018-11-28T00:10:33.058Z,8.01
2018-11-28T00:13:01.212Z,8.05
2018-11-28T00:15:29.404Z,8.07
2018-11-28T00:17:57.540Z,8.02
2018-11-28T00:20:25.776Z,7.93
2018-11-28T00:22:53.911Z,7.92
2018-11-28T00:25:22.061Z,7.92
2018-11-28T00:27:50.261Z,7.94
2018-11-28T00:30:20.241Z,7.96
2018-11-28T00:32:48.485Z,7.90
2018-11-28T00:35:17.809Z,7.88
2018-11-28T00:37:45.953Z,7.90
2018-11-28T00:40:15.184Z,7.93
2018-11-28T00:42:43.465Z,7.98
2018-11-28T00:45:15.531Z,7.93
2018-11-28T00:47:43.682Z,7.87
2018-11-28T00:50:12.873Z,7.84
2018-11-28T00:52:41.036Z,7.84
2018-11-28T00:55:10.712Z,7.77
2018-11-28T00:57:38.874Z,7.79
2018-11-28T01:00:10.921Z,7.76
2018-11-28T01:02:39.169Z,7.69
2018-11-28T01:05:08.736Z,7.66
2018-11-28T01:07:37.062Z,7.70
2018-11-28T01:10:09.326Z,7.77
2018-11-28T01:12:37.488Z,7.81
2018-11-28T01:15:06.549Z,7.72
2018-11-28T01:17:34.757Z,7.69
2018-11-28T01:20:03.048Z,7.66
2018-11-28T01:22:31.224Z,7.62
2018-11-28T01:24:59.361Z,7.63
2018-11-28T01:27:27.494Z,7.62
2018-11-28T01:29:55.657Z,7.65
2018-11-28T01:32:23.800Z,7.69
2018-11-28T01:34:51.940Z,7.63
2018-11-28T01:37:20.085Z,7.53
2018-11-28T01:39:48.269Z,7.51
2018-11-28T01:42:16.405Z,7.54
2018-11-28T01:44:44.619Z,7.56
2018-11-28T01:47:12.753Z,7.60
2018-11-28T01:49:40.908Z,7.67
2018-11-28T01:52:09.109Z,7.66
2018-11-28T01:54:37.256Z,7.63
2018-11-28T01:57:05.969Z,7.64
2018-11-28T01:59:34.195Z,7.69
2018-11-28T02:02:02.308Z,7.68
2018-11-28T02:04:30.489Z,7.70
2018-11-28T02:06:58.757Z,7.68
2018-11-28T02:09:26.968Z,7.64
2018-11-28T02:11:55.132Z,7.62
2018-11-28T02:14:23.346Z,7.63
2018-11-28T02:16:51.452Z,7.66
2018-11-28T02:19:19.641Z,7.69
2018-11-28T02:21:47.817Z,7.73
2018-11-28T02:24:16.096Z,7.69
2018-11-28T02:26:44.261Z,7.64
2018-11-28T02:29:12.521Z,7.60
2018-11-28T02:31:40.713Z,7.59
2018-11-28T02:34:08.909Z,7.63
2018-11-28T02:36:37.182Z,7.63
2018-11-28T02:39:08.650Z,7.62
2018-11-28T02:41:36.814Z,7.61
2018-11-28T02:44:06.309Z,7.62
2018-11-28T02:46:34.473Z,7.64
2018-11-28T02:49:02.650Z,7.64
2018-11-28T02:51:30.908Z,7.62
2018-11-28T02:53:59.097Z,7.57
2018-11-28T02:56:27.285Z,7.49
2018-11-28T02:58:55.418Z,7.39
2018-11-28T03:01:23.560Z,7.31
2018-11-28T03:03:51.805Z,7.19
2018-11-28T03:06:19.994Z,7.10
2018-11-28T03:08:48.152Z,7.01
2018-11-28T03:11:16.341Z,6.91
2018-11-28T03:13:44.498Z,6.80
2018-11-28T03:16:14.897Z,6.74
2018-11-28T03:18:43.300Z,6.67
2018-11-28T03:21:11.488Z,6.63
2018-11-28T03:23:39.624Z,6.62
2018-11-28T03:26:07.857Z,6.54
2018-11-28T03:28:36.024Z,6.58
2018-11-28T03:31:04.243Z,6.50
2018-11-28T03:33:32.491Z,6.47
2018-11-28T03:36:00.661Z,6.40
2018-11-28T03:38:28.913Z,6.36
2018-11-28T03:40:57.056Z,6.33
2018-11-28T03:43:25.388Z,6.31
2018-11-28T03:45:53.544Z,6.37
2018-11-28T03:48:22.076Z,6.27
2018-11-28T03:50:50.524Z,6.17
2018-11-28T03:53:18.688Z,6.15
2018-11-28T03:55:46.866Z,6.17
2018-11-28T03:58:15.143Z,6.17
2018-11-28T04:00:43.326Z,6.15
2018-11-28T04:03:11.601Z,6.14
2018-11-28T04:05:39.754Z,6.10
2018-11-28T04:08:07.948Z,6.05
2018-11-28T04:10:36.127Z,6.02
2018-11-28T04:13:04.288Z,6.00
2018-11-28T04:15:32.421Z,5.98
2018-11-28T04:18:00.566Z,5.96
2018-11-28T04:20:28.755Z,5.92
2018-11-28T04:22:57.000Z,5.93
2018-11-28T04:25:25.245Z,5.91
2018-11-28T04:27:53.449Z,5.90
2018-11-28T04:30:23.549Z,5.88
2018-11-28T04:32:52.757Z,5.90
2018-11-28T04:35:20.936Z,5.86
2018-11-28T04:37:49.135Z,5.79
2018-11-28T04:40:18.308Z,5.76
2018-11-28T04:42:47.084Z,5.74
2018-11-28T04:45:16.272Z,5.67
2018-11-28T04:47:44.474Z,5.64
2018-11-28T04:50:12.968Z,5.63
2018-11-28T04:52:41.105Z,5.59
2018-11-28T04:55:18.806Z,5.60
2018-11-28T04:57:47.198Z,5.53
2018-11-28T05:00:26.192Z,5.59
2018-11-28T05:02:56.480Z,5.50
2018-11-28T05:05:24.742Z,5.52
2018-11-28T05:07:53.486Z,5.53
2018-11-28T05:10:26.646Z,5.56
2018-11-28T05:12:55.525Z,5.48
2018-11-28T05:15:24.728Z,5.51
2018-11-28T05:17:53.687Z,5.46
2018-11-28T05:20:23.917Z,5.46
2018-11-28T05:22:52.052Z,5.53
2018-11-28T05:25:21.148Z,5.56
2018-11-28T05:27:50.096Z,5.50
2018-11-28T05:30:19.307Z,5.47
2018-11-28T05:32:47.436Z,5.46
2018-11-28T05:35:19.741Z,5.48
2018-11-28T05:37:48.165Z,5.50
2018-11-28T05:40:23.024Z,5.54
2018-11-28T05:42:51.336Z,5.55
2018-11-28T05:45:19.621Z,5.56
2018-11-28T05:47:47.788Z,5.61
2018-11-28T05:50:17.888Z,5.56
2018-11-28T05:52:46.060Z,5.56
2018-11-28T05:55:14.961Z,5.55
2018-11-28T05:57:44.081Z,5.56
2018-11-28T06:00:44.468Z,5.59
2018-11-28T06:03:13.376Z,5.53
2018-11-28T06:05:42.240Z,5.63
2018-11-28T06:08:10.616Z,5.70
2018-11-28T06:10:38.925Z,5.77
2018-11-28T06:13:07.213Z,5.83
2018-11-28T06:15:35.393Z,5.89
2018-11-28T06:18:03.546Z,5.96
2018-11-28T06:20:31.733Z,6.04
2018-11-28T06:22:59.876Z,6.11
2018-11-28T06:25:28.108Z,6.18
2018-11-28T06:27:56.248Z,6.24
2018-11-28T06:30:24.428Z,6.29
2018-11-28T06:32:52.709Z,6.28
2018-11-28T06:35:21.053Z,6.31
2018-11-28T06:37:49.352Z,6.34
2018-11-28T06:40:23.616Z,6.30
2018-11-28T06:42:47.575Z,6.33
2018-11-28T06:45:16.975Z,6.37
2018-11-28T06:47:45.108Z,6.42
2018-11-28T06:50:15.092Z,6.39
2018-11-28T06:52:44.137Z,6.27
2018-11-28T06:55:13.577Z,6.24
2018-11-28T06:57:41.729Z,6.23
2018-11-28T07:00:16.984Z,6.21
2018-11-28T07:02:45.240Z,6.13
2018-11-28T07:05:13.600Z,6.13
2018-11-28T07:07:41.832Z,6.14
2018-11-28T07:10:12.151Z,6.18
2018-11-28T07:12:40.326Z,6.24
2018-11-28T07:15:11.825Z,6.34
2018-11-28T07:17:40.656Z,6.34
2018-11-28T07:20:12.077Z,6.36
2018-11-28T07:22:40.224Z,6.38
2018-11-28T07:25:11.502Z,6.40
2018-11-28T07:27:44.871Z,6.42
2018-11-28T07:30:13.612Z,6.42
2018-11-28T07:32:41.809Z,6.41
2018-11-28T07:35:10.689Z,6.42
2018-11-28T07:37:39.044Z,6.46
2018-11-28T07:40:17.092Z,6.50
2018-11-28T07:42:48.204Z,6.51
2018-11-28T07:45:16.384Z,6.55
2018-11-28T07:47:44.561Z,6.57
2018-11-28T07:50:13.357Z,6.67
2018-11-28T07:52:41.497Z,6.61
2018-11-28T07:55:11.075Z,6.71
2018-11-28T07:57:39.556Z,6.60
2018-11-28T08:00:14.223Z,6.63
2018-11-28T08:02:42.890Z,6.67
2018-11-28T08:05:12.431Z,6.73
2018-11-28T08:07:40.652Z,6.82
2018-11-28T08:10:16.445Z,6.86
2018-11-28T08:12:44.674Z,6.92
2018-11-28T08:15:12.822Z,6.99
2018-11-28T08:17:41.073Z,6.95
2018-11-28T08:20:09.258Z,6.95
2018-11-28T08:22:37.535Z,6.95
2018-11-28T08:25:06.564Z,6.97
2018-11-28T08:27:34.863Z,7.02
2018-11-28T08:30:02.877Z,7.06
2018-11-28T08:32:31.053Z,7.17
2018-11-28T08:34:59.207Z,7.01
2018-11-28T08:37:27.428Z,6.97
2018-11-28T08:39:55.673Z,7.01
2018-11-28T08:42:23.880Z,7.07
2018-11-28T08:44:52.181Z,7.09
2018-11-28T08:47:20.316Z,7.12
2018-11-28T08:49:48.455Z,7.22
2018-11-28T08:52:16.675Z,7.23
2018-11-28T08:54:44.804Z,7.16
2018-11-28T08:57:13.021Z,7.13
2018-11-28T08:59:41.173Z,7.19
2018-11-28T09:02:09.466Z,7.20
2018-11-28T09:04:37.600Z,7.24
2018-11-28T09:07:06.021Z,7.27
2018-11-28T09:09:34.165Z,7.30
2018-11-28T09:12:02.374Z,7.35
2018-11-28T09:14:30.521Z,7.39
2018-11-28T09:16:58.705Z,7.39
2018-11-28T09:19:26.879Z,7.38
2018-11-28T09:21:55.081Z,7.38
2018-11-28T09:24:23.236Z,7.34
2018-11-28T09:26:51.404Z,7.39
2018-11-28T09:29:19.568Z,7.35
2018-11-28T09:31:47.966Z,7.39
2018-11-28T09:34:16.096Z,7.45
2018-11-28T09:36:44.449Z,7.45
2018-11-28T09:39:12.580Z,7.47
2018-11-28T09:41:40.777Z,7.42
2018-11-28T09:44:08.969Z,7.44
2018-11-28T09:46:37.217Z,7.37
2018-11-28T09:49:06.452Z,7.38
2018-11-28T09:51:34.748Z,7.45
2018-11-28T09:54:03.218Z,7.53
2018-11-28T09:56:31.457Z,7.54
2018-11-28T09:58:59.601Z,7.56
2018-11-28T10:01:27.732Z,7.59
2018-11-28T10:03:55.878Z,7.67
2018-11-28T10:06:24.141Z,7.71
2018-11-28T10:08:52.329Z,7.60
2018-11-28T10:11:20.593Z,7.60
2018-11-28T10:13:48.801Z,7.62
2018-11-28T10:16:16.941Z,7.73
2018-11-28T10:18:45.229Z,7.66
2018-11-28T10:21:13.405Z,7.75
2018-11-28T10:23:42.226Z,7.79
2018-11-28T10:26:10.592Z,7.70
2018-11-28T10:28:38.748Z,7.70
2018-11-28T10:31:07.687Z,7.78
2018-11-28T10:33:35.945Z,7.85
2018-11-28T10:36:04.117Z,7.84
2018-11-28T10:38:32.765Z,7.93
2018-11-28T10:41:00.962Z,7.82
2018-11-28T10:43:29.160Z,7.88
2018-11-28T10:45:57.401Z,7.96
2018-11-28T10:48:25.554Z,8.03
2018-11-28T10:50:53.860Z,8.12
2018-11-28T10:53:22.044Z,8.15
2018-11-28T10:55:50.250Z,8.16
2018-11-28T10:58:18.460Z,8.20
2018-11-28T11:00:51.973Z,8.19
2018-11-28T11:03:25.605Z,8.18
2018-11-28T11:05:58.906Z,8.11
2018-11-28T11:08:27.936Z,8.12
2018-11-28T11:11:00.337Z,8.23
2018-11-28T11:13:34.664Z,8.18
2018-11-28T11:16:02.806Z,8.18
2018-11-28T11:18:31.148Z,8.17
2018-11-28T11:20:59.339Z,8.00
2018-11-28T11:23:27.473Z,8.02
2018-11-28T11:25:55.756Z,8.09
2018-11-28T11:28:24.028Z,8.23
2018-11-28T11:30:52.230Z,8.19
2018-11-28T11:33:20.372Z,8.21
2018-11-28T11:35:48.516Z,8.34
2018-11-28T11:38:16.736Z,8.33
2018-11-28T11:40:44.913Z,8.41
2018-11-28T11:43:13.067Z,8.50
2018-11-28T11:45:41.230Z,8.39
2018-11-28T11:48:09.361Z,8.37
2018-11-28T11:50:37.513Z,8.47
2018-11-28T11:53:06.301Z,8.33
2018-11-28T11:55:35.093Z,8.32
2018-11-28T11:58:03.250Z,8.45
2018-11-28T12:00:31.541Z,8.46
2018-11-28T12:03:07.256Z,8.47
2018-11-28T12:05:35.511Z,8.54
2018-11-28T12:08:03.608Z,8.63
2018-11-28T12:10:31.759Z,8.64
2018-11-28T12:12:59.897Z,8.67
2018-11-28T12:15:28.170Z,8.71
2018-11-28T12:17:56.322Z,8.76
2018-11-28T12:20:35.758Z,8.65
2018-11-28T12:23:04.029Z,8.65
2018-11-28T12:25:32.193Z,8.67
2018-11-28T12:28:00.392Z,8.80
2018-11-28T12:30:30.073Z,8.88
2018-11-28T12:32:58.291Z,8.90
2018-11-28T12:35:26.549Z,8.96
2018-11-28T12:37:54.697Z,8.99
2018-11-28T12:40:22.909Z,9.05
2018-11-28T12:42:52.221Z,9.02
2018-11-28T12:45:21.213Z,9.00
2018-11-28T12:47:49.793Z,8.99
2018-11-28T12:50:23.969Z,8.98
2018-11-28T12:52:52.778Z,8.97
2018-11-28T12:55:21.584Z,8.83
2018-11-28T12:57:50.349Z,8.84
2018-11-28T13:00:20.696Z,8.77
2018-11-28T13:02:48.992Z,8.75
2018-11-28T13:05:19.364Z,8.75
2018-11-28T13:07:47.620Z,8.77
2018-11-28T13:10:33.825Z,8.82
2018-11-28T13:13:02.061Z,8.82
2018-11-28T13:15:30.277Z,8.80
2018-11-28T13:17:58.417Z,8.82
2018-11-28T13:20:26.672Z,8.82
2018-11-28T13:22:55.701Z,8.83
2018-11-28T13:25:24.972Z,8.78
2018-11-28T13:27:53.279Z,8.78
2018-11-28T13:30:22.361Z,8.82
2018-11-28T13:32:51.278Z,8.80
2018-11-28T13:35:20.336Z,8.85
2018-11-28T13:37:49.617Z,8.89
2018-11-28T13:40:18.642Z,8.86
2018-11-28T13:42:46.836Z,8.94
2018-11-28T13:45:17.007Z,8.85
2018-11-28T13:47:46.545Z,8.82
2018-11-28T13:50:14.682Z,8.80
2018-11-28T13:52:43.008Z,8.81
2018-11-28T13:57:46.756Z,8.77
2018-11-28T14:00:14.885Z,8.88
2018-11-28T14:02:43.021Z,8.82
2018-11-28T14:05:12.560Z,8.73
2018-11-28T14:07:40.745Z,8.70
2018-11-28T14:10:12.984Z,8.68
2018-11-28T14:12:41.190Z,8.71
2018-11-28T14:15:25.128Z,8.68
2018-11-28T14:17:56.547Z,8.65
2018-11-28T14:20:24.774Z,8.65
2018-11-28T14:22:52.939Z,8.66
2018-11-28T14:25:21.249Z,8.69
2018-11-28T14:27:49.492Z,8.75
2018-11-28T14:30:21.796Z,8.73
2018-11-28T14:32:50.561Z,8.73
2018-11-28T14:35:19.025Z,8.71
2018-11-28T14:37:47.309Z,8.71
2018-11-28T14:40:19.376Z,8.77
2018-11-28T14:42:49.973Z,8.76
2018-11-28T14:45:19.208Z,8.84
2018-11-28T14:47:48.056Z,8.80
2018-11-28T14:50:18.220Z,8.82
2018-11-28T14:52:48.176Z,8.60
2018-11-28T14:55:19.628Z,8.84
2018-11-28T14:57:47.780Z,8.84
2018-11-28T15:00:23.875Z,8.85
2018-11-28T15:02:56.092Z,8.88
2018-11-28T15:05:46.117Z,8.89
2018-11-28T15:08:16.537Z,8.80
2018-11-28T15:10:49.688Z,8.80
2018-11-28T15:13:17.841Z,8.80
2018-11-28T15:15:45.988Z,8.86
2018-11-28T15:18:14.264Z,8.86
2018-11-28T15:20:42.409Z,8.79
2018-11-28T15:23:10.609Z,8.76
2018-11-28T15:25:38.758Z,8.75
2018-11-28T15:28:06.896Z,8.79
2018-11-28T15:30:35.061Z,8.71
2018-11-28T15:33:03.224Z,8.68
2018-11-28T15:35:31.505Z,8.65
2018-11-28T15:37:59.677Z,8.64
2018-11-28T15:40:27.813Z,8.60
2018-11-28T15:42:56.152Z,8.58
2018-11-28T15:45:24.393Z,8.60
2018-11-28T15:47:52.673Z,8.52
2018-11-28T15:50:20.859Z,8.51
2018-11-28T15:52:49.142Z,8.46
2018-11-28T15:55:18.081Z,8.56
2018-11-28T15:57:45.682Z,8.43
2018-11-28T16:00:22.419Z,8.36
2018-11-28T16:02:49.924Z,8.30
2018-11-28T16:05:18.101Z,8.32
2018-11-28T16:07:46.288Z,8.33
2018-11-28T16:10:20.084Z,8.32
2018-11-28T16:12:48.629Z,8.30
2018-11-28T16:15:19.973Z,8.33
2018-11-28T16:17:48.128Z,8.32
2018-11-28T16:20:16.457Z,8.39
2018-11-28T16:22:44.753Z,8.30
2018-11-28T16:25:13.220Z,8.28
2018-11-28T16:27:41.892Z,8.30
2018-11-28T16:30:12.194Z,8.32
2018-11-28T16:32:40.501Z,8.30
2018-11-28T16:35:10.144Z,8.28
2018-11-28T16:37:38.412Z,8.31
2018-11-28T16:40:11.684Z,8.35
2018-11-28T16:42:39.884Z,8.30
2018-11-28T16:45:10.504Z,8.28
2018-11-28T16:47:38.652Z,8.29
2018-11-28T16:50:07.565Z,8.29
2018-11-28T16:52:35.829Z,8.30
2018-11-28T16:55:04.043Z,8.28
2018-11-28T16:57:32.177Z,8.28
2018-11-28T17:00:00.458Z,8.28
2018-11-28T17:02:28.596Z,8.28
2018-11-28T17:04:56.741Z,8.28
2018-11-28T17:07:24.873Z,8.20
2018-11-28T17:09:53.085Z,8.21
2018-11-28T17:12:21.229Z,8.18
2018-11-28T17:14:49.402Z,8.19
2018-11-28T17:17:17.669Z,8.19
2018-11-28T17:19:46.032Z,8.18
2018-11-28T17:22:14.341Z,8.23
2018-11-28T17:24:42.484Z,8.19
2018-11-28T17:27:10.621Z,8.14
2018-11-28T17:29:38.768Z,8.13
2018-11-28T17:32:06.962Z,8.08
2018-11-28T17:34:35.228Z,8.04
2018-11-28T17:37:03.481Z,8.07
2018-11-28T17:39:31.985Z,8.03
2018-11-28T17:42:00.161Z,8.00
2018-11-28T17:44:28.437Z,8.01
2018-11-28T17:46:56.605Z,8.01
2018-11-28T17:49:27.952Z,8.00
2018-11-28T17:51:53.045Z,7.96
2018-11-28T17:54:21.328Z,7.97
2018-11-28T17:56:49.465Z,7.90
2018-11-28T17:59:17.617Z,7.88
2018-11-28T18:01:45.842Z,7.82
2018-11-28T18:04:14.001Z,7.83
2018-11-28T18:06:42.297Z,7.74
2018-11-28T18:09:11.568Z,7.73
2018-11-28T18:11:39.793Z,7.68
2018-11-28T18:14:07.988Z,7.64
2018-11-28T18:16:36.251Z,7.68
2018-11-28T18:19:04.520Z,7.68
2018-11-28T18:21:32.686Z,7.72
2018-11-28T18:24:00.813Z,7.70
2018-11-28T18:26:29.744Z,7.68
2018-11-28T18:28:57.920Z,7.74
2018-11-28T18:31:26.162Z,7.71
2018-11-28T18:33:54.465Z,7.74
2018-11-28T18:36:22.685Z,7.73
2018-11-28T18:38:50.960Z,7.66
2018-11-28T18:41:19.130Z,7.62
2018-11-28T18:43:47.265Z,7.60
2018-11-28T18:46:15.657Z,7.52
2018-11-28T18:48:43.797Z,7.49
2018-11-28T18:51:12.041Z,7.45
2018-11-28T18:53:40.201Z,7.42
2018-11-28T18:56:08.473Z,7.39
2018-11-28T18:58:36.628Z,7.36
2018-11-28T19:01:04.865Z,7.34
2018-11-28T19:03:33.077Z,7.31
2018-11-28T19:06:01.225Z,7.28
2018-11-28T19:08:29.477Z,7.28
2018-11-28T19:10:58.327Z,7.28
2018-11-28T19:13:25.946Z,7.26
2018-11-28T19:15:54.087Z,7.31
2018-11-28T19:18:22.413Z,7.26
2018-11-28T19:20:50.452Z,7.30
2018-11-28T19:23:18.600Z,7.33
2018-11-28T19:25:50.094Z,7.36
2018-11-28T19:28:15.965Z,7.39
2018-11-28T19:30:44.149Z,7.32
2018-11-28T19:33:13.517Z,7.31
2018-11-28T19:35:41.737Z,7.30
2018-11-28T19:38:11.309Z,7.25
2018-11-28T19:40:46.657Z,7.26
2018-11-28T19:43:14.857Z,7.23
2018-11-28T19:45:43.033Z,7.27
2018-11-28T19:48:11.296Z,7.32
2018-11-28T19:50:39.456Z,7.30
2018-11-28T19:53:08.541Z,7.26
2018-11-28T19:55:36.675Z,7.26
2018-11-28T19:58:05.017Z,7.24
2018-11-28T20:00:33.184Z,7.25
2018-11-28T20:03:01.485Z,7.25
2018-11-28T20:05:29.672Z,7.24
2018-11-28T20:07:57.816Z,7.25
2018-11-28T20:10:26.088Z,7.23
2018-11-28T20:12:54.276Z,7.24
2018-11-28T20:15:27.773Z,7.26
2018-11-28T20:17:56.129Z,7.32
2018-11-28T20:20:24.317Z,7.20
2018-11-28T20:22:52.502Z,7.16
2018-11-28T20:25:22.841Z,7.14
2018-11-28T20:27:55.374Z,7.14
2018-11-28T20:30:35.233Z,7.06
2018-11-28T20:33:03.489Z,7.04
2018-11-28T20:35:31.611Z,7.05
2018-11-28T20:37:59.745Z,7.03
2018-11-28T20:40:27.977Z,7.08
2018-11-28T20:42:56.632Z,7.03
2018-11-28T20:45:24.789Z,7.02
2018-11-28T20:47:52.990Z,7.07
2018-11-28T20:50:23.696Z,7.05
2018-11-28T20:52:55.042Z,7.04
2018-11-28T20:55:21.829Z,7.02
2018-11-28T20:57:50.005Z,7.03
2018-11-28T21:00:19.577Z,7.04
2018-11-28T21:02:47.765Z,6.95
2018-11-28T21:05:15.913Z,6.96
2018-11-28T21:07:44.121Z,6.95
2018-11-28T21:10:18.641Z,6.97
2018-11-28T21:12:46.840Z,6.94
2018-11-28T21:15:15.027Z,6.96
2018-11-28T21:17:43.775Z,6.97
2018-11-28T21:20:26.755Z,6.99
2018-11-28T21:22:58.222Z,6.94
2018-11-28T21:25:26.448Z,6.90
2018-11-28T21:27:54.732Z,6.93
2018-11-28T21:30:22.901Z,6.97
2018-11-28T21:32:53.215Z,7.04
2018-11-28T21:35:25.666Z,7.00
2018-11-28T21:37:53.994Z,6.99
2018-11-28T21:40:22.152Z,6.95
2018-11-28T21:42:50.417Z,6.95
2018-11-28T21:45:19.584Z,7.03
2018-11-28T21:47:47.904Z,7.05
2018-11-28T21:50:17.928Z,7.01
2018-11-28T21:52:46.231Z,7.04
2018-11-28T21:55:15.485Z,7.05
2018-11-28T21:57:43.692Z,7.02
2018-11-28T22:00:17.892Z,7.02
2018-11-28T22:02:46.272Z,6.99
2018-11-28T22:05:15.266Z,6.98
2018-11-28T22:07:43.437Z,6.99
2018-11-28T22:10:17.352Z,7.01
2018-11-28T22:12:45.652Z,7.01
2018-11-28T22:15:14.672Z,7.02
2018-11-28T22:17:43.916Z,7.08
2018-11-28T22:20:13.000Z,7.02
2018-11-28T22:22:41.197Z,6.99
2018-11-28T22:25:12.436Z,6.98
2018-11-28T22:27:40.604Z,6.93
2018-11-28T22:30:10.816Z,6.92
2018-11-28T22:32:39.016Z,6.94
2018-11-28T22:35:07.492Z,6.96
2018-11-28T22:37:35.644Z,6.96
2018-11-28T22:40:04.720Z,6.97
2018-11-28T22:42:33.032Z,6.97
2018-11-28T22:45:01.197Z,6.98
2018-11-28T22:47:29.389Z,6.97
2018-11-28T22:49:57.548Z,6.95
2018-11-28T22:52:25.732Z,6.88
2018-11-28T22:54:53.912Z,6.85
2018-11-28T22:57:22.072Z,6.84
2018-11-28T22:59:50.216Z,6.86
2018-11-28T23:03:10.043Z,6.86
2018-11-28T23:05:56.617Z,6.68
2018-11-28T23:08:24.833Z,6.66
2018-11-28T23:10:53.112Z,6.72
2018-11-28T23:13:22.921Z,6.69
2018-11-28T23:15:51.056Z,6.68
2018-11-28T23:18:19.277Z,6.69
2018-11-28T23:20:47.479Z,6.70
2018-11-28T23:23:15.617Z,6.61
2018-11-28T23:25:43.785Z,6.58
2018-11-28T23:28:11.936Z,6.50
2018-11-28T23:30:40.253Z,6.49
2018-11-28T23:33:09.147Z,6.40
2018-11-28T23:35:37.398Z,6.39
2018-11-28T23:38:06.445Z,6.38
2018-11-28T23:40:34.710Z,6.43
2018-11-28T23:43:03.397Z,6.45
2018-11-28T23:45:31.956Z,6.48
2018-11-28T23:48:00.256Z,6.49
2018-11-28T23:50:28.523Z,6.51
2018-11-28T23:52:56.910Z,6.52
2018-11-28T23:55:28.816Z,6.61
2018-11-28T23:57:57.043Z,6.43
